Time;durP1;ratioP1;P1;durP2;ratioP2;P2;SDS_P1;SDS_P2;PMS_P1;PMS_P2;Temp;Humidity;BMP_temperature;BMP_pressure;BME280_temperature;BME280_humidity;BME280_pressure;Samples;Min_cycle;Max_cycle;Signal;HPM_P1;HPM_P2
2024/03/03 00:01:17;;;;;;;;;;;4.30;99.90;;;;;;5059026;28;19931;-62
2024/03/03 00:03:48;;;;;;;;;;;4.30;99.90;;;;;;5062550;28;19924;-62
2024/03/03 00:06:16;;;;;;;;;;;4.30;99.90;;;;;;5059488;28;20300;-63
2024/03/03 00:08:47;;;;;;;;;;;4.30;99.90;;;;;;5064449;28;19932;-62
2024/03/03 00:11:19;;;;;;;;;;;4.30;99.90;;;;;;5055674;28;20018;-63
2024/03/03 00:13:51;;;;;;;;;;;4.20;99.90;;;;;;5059295;28;19991;-62
2024/03/03 00:16:22;;;;;;;;;;;4.20;99.90;;;;;;5051999;28;19970;-63
2024/03/03 00:18:55;;;;;;;;;;;4.20;99.90;;;;;;5052510;28;19928;-62
2024/03/03 00:21:21;;;;;;;;;;;4.10;99.90;;;;;;5054419;28;19924;-63
2024/03/03 00:23:48;;;;;;;;;;;4.10;99.90;;;;;;5056203;28;19940;-63
2024/03/03 00:26:20;;;;;;;;;;;4.10;99.90;;;;;;5057749;28;20392;-63
2024/03/03 00:28:52;;;;;;;;;;;4.00;99.90;;;;;;5060701;28;20298;-62
2024/03/03 00:31:24;;;;;;;;;;;3.90;99.90;;;;;;5060044;28;19925;-62
2024/03/03 00:33:51;;;;;;;;;;;3.90;99.90;;;;;;5061897;28;19925;-63
2024/03/03 00:36:18;;;;;;;;;;;3.80;99.90;;;;;;5065404;28;19982;-62
2024/03/03 00:38:50;;;;;;;;;;;3.80;99.90;;;;;;5066220;28;19925;-62
2024/03/03 00:41:22;;;;;;;;;;;3.80;99.90;;;;;;5061794;28;19939;-62
2024/03/03 00:43:49;;;;;;;;;;;3.70;99.90;;;;;;5066287;28;20019;-62
2024/03/03 00:46:20;;;;;;;;;;;3.70;99.90;;;;;;5067081;28;20473;-62
2024/03/03 00:48:52;;;;;;;;;;;3.70;99.90;;;;;;5061783;28;20023;-63
2024/03/03 00:51:24;;;;;;;;;;;3.70;99.90;;;;;;5065049;28;19935;-62
2024/03/03 00:53:56;;;;;;;;;;;3.70;99.90;;;;;;5082455;28;20435;-63
2024/03/03 00:56:24;;;;;;;;;;;3.60;99.90;;;;;;5068741;28;19968;-63
2024/03/03 00:58:51;;;;;;;;;;;3.60;99.90;;;;;;5062708;28;20368;-62
2024/03/03 01:01:19;;;;;;;;;;;3.60;99.90;;;;;;5066711;28;20011;-62
2024/03/03 01:03:51;;;;;;;;;;;3.60;99.90;;;;;;5065415;28;19931;-63
2024/03/03 01:06:22;;;;;;;;;;;3.60;99.90;;;;;;5055375;28;20398;-63
2024/03/03 01:08:54;;;;;;;;;;;3.50;99.90;;;;;;5062077;28;20400;-62
2024/03/03 01:11:26;;;;;;;;;;;3.60;99.90;;;;;;5061957;28;19998;-62
2024/03/03 01:13:58;;;;;;;;;;;3.50;99.90;;;;;;5061883;28;19931;-62
2024/03/03 01:16:31;;;;;;;;;;;3.50;99.90;;;;;;5066953;28;20357;-62
2024/03/03 01:19:02;;;;;;;;;;;3.50;99.90;;;;;;5066465;28;20491;-62
2024/03/03 01:21:38;;;;;;;;;;;3.40;99.90;;;;;;5083591;28;20380;-62
2024/03/03 01:24:09;;;;;;;;;;;3.40;99.90;;;;;;5066471;28;19925;-62
2024/03/03 01:26:41;;;;;;;;;;;3.40;99.90;;;;;;5061756;28;19925;-62
2024/03/03 01:29:15;;;;;;;;;;;3.50;99.90;;;;;;5068668;28;19936;-61
2024/03/03 01:31:46;;;;;;;;;;;3.50;99.90;;;;;;5066277;28;19924;-62
2024/03/03 01:34:18;;;;;;;;;;;3.50;99.90;;;;;;5063139;28;19984;-62
2024/03/03 01:36:50;;;;;;;;;;;3.50;99.90;;;;;;5066189;28;19982;-62
2024/03/03 01:39:22;;;;;;;;;;;3.50;99.90;;;;;;5064249;28;20023;-62
2024/03/03 01:41:54;;;;;;;;;;;3.50;99.90;;;;;;5076866;28;19972;-62
2024/03/03 01:44:25;;;;;;;;;;;3.60;99.90;;;;;;5059629;28;19924;-63
2024/03/03 01:46:58;;;;;;;;;;;3.60;99.90;;;;;;5084035;28;19925;-62
2024/03/03 01:49:31;;;;;;;;;;;3.60;99.90;;;;;;5071290;28;19928;-62
2024/03/03 01:52:04;;;;;;;;;;;3.70;99.90;;;;;;5067673;28;19932;-62
2024/03/03 01:54:36;;;;;;;;;;;3.70;99.90;;;;;;5063915;28;19924;-62
2024/03/03 01:57:10;;;;;;;;;;;3.70;99.90;;;;;;5072517;28;19913;-63
2024/03/03 01:59:42;;;;;;;;;;;3.80;99.90;;;;;;5060411;28;20050;-62
2024/03/03 02:02:14;;;;;;;;;;;3.80;99.90;;;;;;5081524;28;20430;-62
2024/03/03 02:04:46;;;;;;;;;;;3.90;99.90;;;;;;5068415;28;19931;-63
2024/03/03 02:07:18;;;;;;;;;;;3.90;99.90;;;;;;5068619;28;20289;-66
2024/03/03 02:09:45;;;;;;;;;;;4.00;99.90;;;;;;5067633;28;19928;-63
2024/03/03 02:12:13;;;;;;;;;;;4.00;99.90;;;;;;5069045;28;20457;-62
2024/03/03 02:14:46;;;;;;;;;;;4.00;99.90;;;;;;5064394;28;20011;-62
2024/03/03 02:17:18;;;;;;;;;;;4.00;99.90;;;;;;5069305;28;19982;-63
2024/03/03 02:19:50;;;;;;;;;;;4.00;99.90;;;;;;5067913;28;19931;-63
2024/03/03 02:22:22;;;;;;;;;;;3.90;99.90;;;;;;5063910;28;19925;-62
2024/03/03 02:24:54;;;;;;;;;;;3.90;99.90;;;;;;5068781;28;19928;-62
2024/03/03 02:27:20;;;;;;;;;;;3.90;99.90;;;;;;5064999;28;20426;-62
2024/03/03 02:29:53;;;;;;;;;;;3.90;99.90;;;;;;5067125;28;20005;-62
2024/03/03 02:32:19;;;;;;;;;;;3.90;99.90;;;;;;5065722;28;20023;-62
2024/03/03 02:34:46;;;;;;;;;;;4.00;99.90;;;;;;5056021;28;19978;-62
2024/03/03 02:37:13;;;;;;;;;;;3.90;99.90;;;;;;5058205;28;19972;-63
2024/03/03 02:39:45;;;;;;;;;;;3.90;99.90;;;;;;5059537;28;19928;-62
2024/03/03 02:42:17;;;;;;;;;;;3.90;99.90;;;;;;5062489;28;19935;-62
2024/03/03 02:44:43;;;;;;;;;;;3.80;99.90;;;;;;5046877;28;20304;-63
2024/03/03 02:47:10;;;;;;;;;;;3.80;99.90;;;;;;5049133;28;20395;-62
2024/03/03 02:49:42;;;;;;;;;;;3.70;99.90;;;;;;5082709;28;19925;-62
2024/03/03 02:52:14;;;;;;;;;;;3.70;99.90;;;;;;5069274;28;19929;-63
2024/03/03 02:54:41;;;;;;;;;;;3.70;99.90;;;;;;5067494;28;20314;-62
2024/03/03 02:57:13;;;;;;;;;;;3.70;99.90;;;;;;5053881;28;19925;-63
2024/03/03 02:59:45;;;;;;;;;;;3.80;99.90;;;;;;5054783;28;20401;-62
2024/03/03 03:02:12;;;;;;;;;;;3.80;99.90;;;;;;5065204;28;19924;-62
2024/03/03 03:04:44;;;;;;;;;;;3.80;99.90;;;;;;5063504;28;19929;-62
2024/03/03 03:07:10;;;;;;;;;;;3.80;99.90;;;;;;5062511;28;20028;-62
2024/03/03 03:09:37;;;;;;;;;;;3.90;99.90;;;;;;5062695;28;20278;-62
2024/03/03 03:12:09;;;;;;;;;;;3.90;99.90;;;;;;5063765;28;19925;-63
2024/03/03 03:14:41;;;;;;;;;;;3.90;99.90;;;;;;5065764;28;19928;-63
2024/03/03 03:17:12;;;;;;;;;;;4.00;99.90;;;;;;5054141;28;20401;-63
2024/03/03 03:19:44;;;;;;;;;;;4.00;99.90;;;;;;5071104;28;19977;-63
2024/03/03 03:22:17;;;;;;;;;;;4.00;99.90;;;;;;5071610;28;20420;-63
2024/03/03 03:24:48;;;;;;;;;;;4.10;99.90;;;;;;5069248;28;19931;-63
2024/03/03 03:27:15;;;;;;;;;;;4.00;99.90;;;;;;5067887;28;19928;-62
2024/03/03 03:29:47;;;;;;;;;;;4.10;99.90;;;;;;5066075;28;20010;-63
2024/03/03 03:32:19;;;;;;;;;;;4.10;99.90;;;;;;5051791;28;19971;-63
2024/03/03 03:34:51;;;;;;;;;;;4.10;99.90;;;;;;5058786;28;19924;-62
2024/03/03 03:37:23;;;;;;;;;;;4.20;99.90;;;;;;5058488;28;19928;-62
2024/03/03 03:39:55;;;;;;;;;;;4.20;99.90;;;;;;5058276;28;19987;-63
2024/03/03 03:42:27;;;;;;;;;;;4.20;99.90;;;;;;5055586;28;20445;-63
2024/03/03 03:44:59;;;;;;;;;;;4.20;99.90;;;;;;5054056;28;19929;-62
2024/03/03 03:47:34;;;;;;;;;;;4.20;99.90;;;;;;5068077;28;19931;-62
2024/03/03 03:50:06;;;;;;;;;;;4.20;99.90;;;;;;5068706;28;19928;-62
2024/03/03 03:52:37;;;;;;;;;;;4.20;99.90;;;;;;5067874;28;19925;-62
2024/03/03 03:55:09;;;;;;;;;;;4.30;99.90;;;;;;5066275;28;19925;-62
2024/03/03 03:57:37;;;;;;;;;;;4.30;99.90;;;;;;5062145;28;20031;-62
2024/03/03 04:00:10;;;;;;;;;;;4.30;99.90;;;;;;5059665;28;20510;-62
2024/03/03 04:02:41;;;;;;;;;;;4.30;99.90;;;;;;5062873;28;19931;-62
2024/03/03 04:05:15;;;;;;;;;;;4.30;99.90;;;;;;5064898;28;19933;-63
2024/03/03 04:07:47;;;;;;;;;;;4.30;99.90;;;;;;5066930;28;20296;-62
2024/03/03 04:10:18;;;;;;;;;;;4.30;99.90;;;;;;5071737;28;20520;-63
2024/03/03 04:12:50;;;;;;;;;;;4.30;99.90;;;;;;5057243;28;19932;-62
2024/03/03 04:15:22;;;;;;;;;;;4.30;99.90;;;;;;5052035;28;19959;-63
2024/03/03 04:17:54;;;;;;;;;;;4.30;99.90;;;;;;5067650;28;19967;-62
2024/03/03 04:20:25;;;;;;;;;;;4.30;99.90;;;;;;5055020;28;19929;-62
2024/03/03 04:22:57;;;;;;;;;;;4.30;99.90;;;;;;5057573;28;19995;-63
2024/03/03 04:25:29;;;;;;;;;;;4.20;99.90;;;;;;5060210;28;20427;-63
2024/03/03 04:27:56;;;;;;;;;;;4.20;99.90;;;;;;5061359;28;19983;-63
2024/03/03 04:30:28;;;;;;;;;;;4.10;99.90;;;;;;5058316;28;19924;-62
2024/03/03 04:33:00;;;;;;;;;;;4.10;99.90;;;;;;5056428;28;20010;-62
2024/03/03 04:35:27;;;;;;;;;;;4.10;99.90;;;;;;5066993;28;19924;-62
2024/03/03 04:37:54;;;;;;;;;;;4.10;99.90;;;;;;5069436;28;20019;-62
2024/03/03 04:40:26;;;;;;;;;;;4.00;99.90;;;;;;5064106;28;20385;-62
2024/03/03 04:42:52;;;;;;;;;;;4.00;99.90;;;;;;5051713;28;19967;-62
2024/03/03 04:45:24;;;;;;;;;;;4.10;99.90;;;;;;5054857;28;20121;-63
2024/03/03 04:47:56;;;;;;;;;;;4.10;99.90;;;;;;5056820;28;19939;-62
2024/03/03 04:50:28;;;;;;;;;;;4.10;99.90;;;;;;5057485;28;19925;-63
2024/03/03 04:53:01;;;;;;;;;;;4.10;99.90;;;;;;5058999;28;20300;-62
2024/03/03 04:55:28;;;;;;;;;;;4.10;99.90;;;;;;5062577;28;19925;-63
2024/03/03 04:57:59;;;;;;;;;;;4.10;99.90;;;;;;5062970;28;19932;-63
2024/03/03 05:00:32;;;;;;;;;;;4.10;99.90;;;;;;5055228;28;19940;-62
2024/03/03 05:03:03;;;;;;;;;;;4.10;99.90;;;;;;5059490;28;20019;-62
2024/03/03 05:05:35;;;;;;;;;;;4.20;99.90;;;;;;5070149;28;19924;-63
2024/03/03 05:08:07;;;;;;;;;;;4.20;99.90;;;;;;5052382;28;19928;-63
2024/03/03 05:10:39;;;;;;;;;;;4.20;99.90;;;;;;5067309;28;19924;-63
2024/03/03 05:13:06;;;;;;;;;;;4.20;99.90;;;;;;5064776;28;20020;-62
2024/03/03 05:15:38;;;;;;;;;;;4.20;99.90;;;;;;5063711;28;19925;-62
2024/03/03 05:18:09;;;;;;;;;;;4.20;99.90;;;;;;5060439;28;19925;-62
2024/03/03 05:20:41;;;;;;;;;;;4.10;99.90;;;;;;5062005;28;19974;-62
2024/03/03 05:23:13;;;;;;;;;;;4.10;99.90;;;;;;5061578;28;19971;-62
2024/03/03 05:25:40;;;;;;;;;;;4.10;99.90;;;;;;5059789;28;19931;-63
2024/03/03 05:28:13;;;;;;;;;;;4.10;99.90;;;;;;5057868;28;20417;-62
2024/03/03 05:30:40;;;;;;;;;;;4.10;99.90;;;;;;5056110;28;19929;-63
2024/03/03 05:33:12;;;;;;;;;;;4.10;99.90;;;;;;5053647;28;19964;-62
2024/03/03 05:35:44;;;;;;;;;;;4.10;99.90;;;;;;5056310;28;19925;-62
2024/03/03 05:38:12;;;;;;;;;;;4.10;99.90;;;;;;5058191;28;20449;-62
2024/03/03 05:40:39;;;;;;;;;;;4.20;99.90;;;;;;5059724;28;19935;-62
2024/03/03 05:43:05;;;;;;;;;;;4.10;99.90;;;;;;5065949;28;19974;-63
2024/03/03 05:45:37;;;;;;;;;;;4.10;99.90;;;;;;5064835;28;19925;-63
2024/03/03 05:48:09;;;;;;;;;;;4.10;99.90;;;;;;5066062;28;19948;-62
2024/03/03 05:50:36;;;;;;;;;;;4.10;99.90;;;;;;5067479;28;19934;-63
2024/03/03 05:53:07;;;;;;;;;;;4.10;99.90;;;;;;5069264;28;19939;-62
2024/03/03 05:55:36;;;;;;;;;;;4.10;99.90;;;;;;5071226;28;20455;-62
2024/03/03 05:58:07;;;;;;;;;;;4.10;99.90;;;;;;5072953;28;19929;-62
2024/03/03 06:00:39;;;;;;;;;;;4.10;99.90;;;;;;5057996;28;19964;-62
2024/03/03 06:03:11;;;;;;;;;;;4.10;99.90;;;;;;5054966;28;20011;-62
2024/03/03 06:05:37;;;;;;;;;;;4.00;99.90;;;;;;5053872;28;20292;-62
2024/03/03 06:08:09;;;;;;;;;;;4.10;99.90;;;;;;5054982;28;20027;-62
2024/03/03 06:10:41;;;;;;;;;;;4.10;99.90;;;;;;5067067;28;19944;-63
2024/03/03 06:13:07;;;;;;;;;;;4.00;99.90;;;;;;5063261;28;20040;-62
2024/03/03 06:15:39;;;;;;;;;;;4.00;99.90;;;;;;5065283;28;19935;-62
2024/03/03 06:18:11;;;;;;;;;;;3.90;99.90;;;;;;5053499;28;19967;-62
2024/03/03 06:20:37;;;;;;;;;;;3.80;99.90;;;;;;5062360;28;20305;-62
2024/03/03 06:23:09;;;;;;;;;;;3.80;99.90;;;;;;5079989;28;19924;-63
2024/03/03 06:25:41;;;;;;;;;;;3.80;99.90;;;;;;5071951;28;20392;-63
2024/03/03 06:28:13;;;;;;;;;;;3.90;99.90;;;;;;5055702;28;19929;-62
2024/03/03 06:30:45;;;;;;;;;;;3.90;99.90;;;;;;5055938;28;20408;-62
2024/03/03 06:33:18;;;;;;;;;;;3.90;99.90;;;;;;5058149;28;19925;-62
2024/03/03 06:35:50;;;;;;;;;;;3.90;99.90;;;;;;5060740;28;19932;-63
2024/03/03 06:38:17;;;;;;;;;;;4.00;99.90;;;;;;5062383;28;19939;-62
2024/03/03 06:40:48;;;;;;;;;;;4.00;99.90;;;;;;5061588;28;19924;-63
2024/03/03 06:43:16;;;;;;;;;;;4.00;99.90;;;;;;5066655;28;19932;-62
2024/03/03 06:45:48;;;;;;;;;;;4.10;99.90;;;;;;5063017;28;19924;-63
2024/03/03 06:48:19;;;;;;;;;;;4.10;99.90;;;;;;5061492;28;20019;-62
2024/03/03 06:50:52;;;;;;;;;;;4.10;99.90;;;;;;5071432;28;19928;-62
2024/03/03 06:53:19;;;;;;;;;;;4.00;99.90;;;;;;5056815;28;19929;-62
2024/03/03 06:55:50;;;;;;;;;;;4.00;99.90;;;;;;5054489;28;19928;-63
2024/03/03 06:58:17;;;;;;;;;;;4.00;99.90;;;;;;5067255;28;19928;-62
2024/03/03 07:00:49;;;;;;;;;;;4.00;99.90;;;;;;5059428;28;19925;-63
2024/03/03 07:03:56;;;;;;;;;;;4.00;99.90;;;;;;5061336;28;19925;-62
2024/03/03 07:06:16;;;;;;;;;;;4.00;99.90;;;;;;5061251;28;20392;-62
2024/03/03 07:08:43;;;;;;;;;;;4.10;99.90;;;;;;5059990;28;20007;-65
2024/03/03 07:11:15;;;;;;;;;;;4.10;99.90;;;;;;5059616;28;19972;-63
2024/03/03 07:13:47;;;;;;;;;;;4.10;99.90;;;;;;5066792;28;20371;-62
2024/03/03 07:16:19;;;;;;;;;;;4.10;99.90;;;;;;5065528;28;20363;-62
2024/03/03 07:18:46;;;;;;;;;;;4.10;99.90;;;;;;5061948;28;20019;-62
2024/03/03 07:21:12;;;;;;;;;;;4.20;99.90;;;;;;5061571;28;19932;-63
2024/03/03 07:23:44;;;;;;;;;;;4.20;99.90;;;;;;5060697;28;19986;-62
2024/03/03 07:26:11;;;;;;;;;;;4.20;99.90;;;;;;5062441;28;19924;-63
2024/03/03 07:28:43;;;;;;;;;;;4.20;99.90;;;;;;5063670;28;19986;-62
2024/03/03 07:31:14;;;;;;;;;;;4.20;99.90;;;;;;5048852;28;19935;-62
2024/03/03 07:33:46;;;;;;;;;;;4.20;99.90;;;;;;5062373;28;20006;-62
2024/03/03 07:36:13;;;;;;;;;;;4.20;99.90;;;;;;5061242;28;19924;-62
2024/03/03 07:38:45;;;;;;;;;;;4.20;99.90;;;;;;5063717;28;19929;-62
2024/03/03 07:41:11;;;;;;;;;;;4.20;99.90;;;;;;5056179;28;19964;-63
2024/03/03 07:43:38;;;;;;;;;;;4.20;99.90;;;;;;5057186;28;19931;-62
2024/03/03 07:46:11;;;;;;;;;;;4.20;99.90;;;;;;5058794;28;20486;-62
2024/03/03 07:48:44;;;;;;;;;;;4.20;99.90;;;;;;5058384;28;20021;-62
2024/03/03 07:51:11;;;;;;;;;;;4.20;99.90;;;;;;5065694;28;19935;-62
2024/03/03 07:53:43;;;;;;;;;;;4.20;99.90;;;;;;5059304;28;20622;-62
2024/03/03 07:56:15;;;;;;;;;;;4.30;99.90;;;;;;5061089;28;19935;-62
2024/03/03 07:58:42;;;;;;;;;;;4.20;99.90;;;;;;5066010;28;19951;-62
2024/03/03 08:01:14;;;;;;;;;;;4.20;99.90;;;;;;5062968;28;19929;-62
2024/03/03 08:03:41;;;;;;;;;;;4.20;99.90;;;;;;5060924;28;20024;-62
2024/03/03 08:06:13;;;;;;;;;;;4.30;99.90;;;;;;5060224;28;19929;-62
2024/03/03 08:08:40;;;;;;;;;;;4.30;99.90;;;;;;5064418;28;19971;-62
2024/03/03 08:11:12;;;;;;;;;;;4.40;99.90;;;;;;5063711;28;20547;-62
2024/03/03 08:13:44;;;;;;;;;;;4.40;99.90;;;;;;5062230;28;20013;-62
2024/03/03 08:16:10;;;;;;;;;;;4.40;99.90;;;;;;5061397;28;19928;-62
2024/03/03 08:18:42;;;;;;;;;;;4.40;99.90;;;;;;5065071;28;20028;-62
2024/03/03 08:21:11;;;;;;;;;;;4.30;99.90;;;;;;5067928;28;20007;-62
2024/03/03 08:23:39;;;;;;;;;;;4.30;99.90;;;;;;5066210;28;19967;-62
2024/03/03 08:26:11;;;;;;;;;;;4.30;99.90;;;;;;5064844;28;20023;-62
2024/03/03 08:28:43;;;;;;;;;;;4.20;99.90;;;;;;5062903;28;19924;-62
2024/03/03 08:31:16;;;;;;;;;;;4.20;99.90;;;;;;5059539;28;19935;-62
2024/03/03 08:33:47;;;;;;;;;;;4.20;99.90;;;;;;5058591;28;19929;-64
2024/03/03 08:36:20;;;;;;;;;;;4.30;99.90;;;;;;5067555;28;19925;-62
2024/03/03 08:38:51;;;;;;;;;;;4.30;99.90;;;;;;5069327;28;20033;-62
2024/03/03 08:41:18;;;;;;;;;;;4.30;99.90;;;;;;5064925;28;19925;-62
2024/03/03 08:43:50;;;;;;;;;;;4.40;99.90;;;;;;5057881;28;19931;-62
2024/03/03 08:46:16;;;;;;;;;;;4.40;99.90;;;;;;5063714;28;19925;-62
2024/03/03 08:48:43;;;;;;;;;;;4.50;99.90;;;;;;5064638;28;20314;-62
2024/03/03 08:51:10;;;;;;;;;;;4.60;99.90;;;;;;5063967;28;20053;-62
2024/03/03 08:53:43;;;;;;;;;;;4.60;99.90;;;;;;5057976;28;19925;-62
2024/03/03 08:56:14;;;;;;;;;;;4.60;99.90;;;;;;5065364;28;20345;-62
2024/03/03 08:58:46;;;;;;;;;;;4.60;99.90;;;;;;5058834;28;19929;-62
2024/03/03 09:01:18;;;;;;;;;;;4.60;99.90;;;;;;5057112;28;20019;-62
2024/03/03 09:03:49;;;;;;;;;;;4.70;99.90;;;;;;5066787;28;20011;-62
2024/03/03 09:06:21;;;;;;;;;;;4.70;99.90;;;;;;5062627;28;19928;-62
2024/03/03 09:08:53;;;;;;;;;;;4.70;99.90;;;;;;5068834;28;19950;-62
2024/03/03 09:11:20;;;;;;;;;;;4.70;99.90;;;;;;5065239;28;19964;-62
2024/03/03 09:13:52;;;;;;;;;;;4.70;99.90;;;;;;5067941;28;19928;-63
2024/03/03 09:16:23;;;;;;;;;;;4.70;99.90;;;;;;5062898;28;19924;-63
2024/03/03 09:18:56;;;;;;;;;;;4.80;99.90;;;;;;5067401;28;19925;-63
2024/03/03 09:21:22;;;;;;;;;;;4.90;99.90;;;;;;5053336;28;19931;-63
2024/03/03 09:23:54;;;;;;;;;;;5.00;99.90;;;;;;5069624;28;19925;-63
2024/03/03 09:26:26;;;;;;;;;;;5.00;99.90;;;;;;5065398;28;19949;-63
2024/03/03 09:28:57;;;;;;;;;;;5.10;99.90;;;;;;5058859;28;19928;-62
2024/03/03 09:31:29;;;;;;;;;;;5.20;99.90;;;;;;5061013;28;19924;-62
2024/03/03 09:34:01;;;;;;;;;;;5.40;99.90;;;;;;5060242;28;19929;-63
2024/03/03 09:36:34;;;;;;;;;;;5.40;99.90;;;;;;5059263;28;20005;-62
2024/03/03 09:39:07;;;;;;;;;;;5.40;99.90;;;;;;5067014;28;19928;-62
2024/03/03 09:41:39;;;;;;;;;;;5.50;99.90;;;;;;5063333;28;20339;-63
2024/03/03 09:44:10;;;;;;;;;;;5.50;99.90;;;;;;5064893;28;19928;-62
2024/03/03 09:46:42;;;;;;;;;;;5.60;99.90;;;;;;5062949;28;20389;-63
2024/03/03 09:49:16;;;;;;;;;;;5.60;99.90;;;;;;5066883;28;19924;-62
2024/03/03 09:51:48;;;;;;;;;;;5.70;99.90;;;;;;5060668;28;19933;-62
2024/03/03 09:54:16;;;;;;;;;;;5.70;99.90;;;;;;5063346;28;19925;-62
2024/03/03 09:56:49;;;;;;;;;;;5.70;99.90;;;;;;5061496;28;19928;-63
2024/03/03 09:59:21;;;;;;;;;;;5.70;99.90;;;;;;5064711;28;20293;-62
2024/03/03 10:01:56;;;;;;;;;;;5.70;99.90;;;;;;5069565;28;19928;-63
2024/03/03 10:04:29;;;;;;;;;;;5.80;99.90;;;;;;5069267;28;19928;-63
2024/03/03 10:07:03;;;;;;;;;;;5.80;99.90;;;;;;5061609;28;19929;-63
2024/03/03 10:09:36;;;;;;;;;;;5.90;99.90;;;;;;5067766;28;19929;-62
2024/03/03 10:12:08;;;;;;;;;;;6.00;99.90;;;;;;5064888;28;19939;-62
2024/03/03 10:14:40;;;;;;;;;;;6.10;99.90;;;;;;5067653;28;19934;-62
2024/03/03 10:17:12;;;;;;;;;;;6.20;99.90;;;;;;5061445;28;20435;-62
2024/03/03 10:19:44;;;;;;;;;;;6.30;99.90;;;;;;5070472;28;19963;-63
2024/03/03 10:22:19;;;;;;;;;;;6.40;99.90;;;;;;5078462;28;19932;-63
2024/03/03 10:25:05;;;;;;;;;;;6.50;99.90;;;;;;5063591;28;19928;-64
2024/03/03 10:27:38;;;;;;;;;;;6.60;99.90;;;;;;5062579;28;19929;-63
2024/03/03 10:30:09;;;;;;;;;;;6.60;99.90;;;;;;5063713;28;20019;-63
2024/03/03 10:32:37;;;;;;;;;;;6.70;99.90;;;;;;5064783;28;20480;-63
2024/03/03 10:35:12;;;;;;;;;;;6.70;99.90;;;;;;5063222;28;19929;-63
2024/03/03 10:37:50;;;;;;;;;;;6.80;99.90;;;;;;5063504;28;20024;-63
2024/03/03 10:40:22;;;;;;;;;;;6.90;99.90;;;;;;5064223;28;20477;-63
2024/03/03 10:42:55;;;;;;;;;;;7.00;99.90;;;;;;5054811;28;19928;-63
2024/03/03 10:45:27;;;;;;;;;;;7.00;99.90;;;;;;5057715;28;20454;-63
2024/03/03 10:47:59;;;;;;;;;;;7.00;99.90;;;;;;5058712;28;19986;-63
2024/03/03 10:50:26;;;;;;;;;;;7.10;99.90;;;;;;5059875;28;19925;-63
2024/03/03 10:52:59;;;;;;;;;;;7.00;99.90;;;;;;5068584;28;19928;-63
2024/03/03 10:55:32;;;;;;;;;;;6.90;99.90;;;;;;5056956;28;19959;-64
2024/03/03 10:58:01;;;;;;;;;;;6.90;99.90;;;;;;5058408;28;19928;-64
2024/03/03 11:00:29;;;;;;;;;;;6.90;99.90;;;;;;5066377;28;19967;-63
2024/03/03 11:03:01;;;;;;;;;;;6.90;99.90;;;;;;5063272;28;20460;-67
2024/03/03 11:05:28;;;;;;;;;;;7.00;99.90;;;;;;5063501;28;19930;-65
2024/03/03 11:08:02;;;;;;;;;;;7.00;99.90;;;;;;5066600;28;20651;-64
2024/03/03 11:10:33;;;;;;;;;;;7.10;99.90;;;;;;5061289;28;20665;-65
2024/03/03 11:13:06;;;;;;;;;;;7.30;99.90;;;;;;5062165;28;19935;-63
2024/03/03 11:15:37;;;;;;;;;;;7.50;99.90;;;;;;5066114;28;20407;-62
2024/03/03 11:18:12;;;;;;;;;;;7.60;99.90;;;;;;5053002;28;19929;-63
2024/03/03 11:20:40;;;;;;;;;;;7.80;99.90;;;;;;5055182;28;20021;-62
2024/03/03 11:23:19;;;;;;;;;;;8.00;99.90;;;;;;5061199;28;19928;-63
2024/03/03 11:26:11;;;;;;;;;;;8.30;99.90;;;;;;5062585;28;19939;-62
2024/03/03 11:28:43;;;;;;;;;;;8.50;99.90;;;;;;5064123;28;19925;-62
2024/03/03 11:31:10;;;;;;;;;;;8.70;99.90;;;;;;5063849;28;19928;-62
2024/03/03 11:33:38;;;;;;;;;;;8.90;99.90;;;;;;5057695;28;20015;-62
2024/03/03 11:36:10;;;;;;;;;;;9.10;99.90;;;;;;5063454;28;19924;-62
2024/03/03 11:38:42;;;;;;;;;;;9.20;99.90;;;;;;5065288;28;20230;-62
2024/03/03 11:41:12;;;;;;;;;;;9.30;99.90;;;;;;5053657;28;19983;-63
2024/03/03 11:43:40;;;;;;;;;;;9.50;99.90;;;;;;5058385;28;19935;-62
2024/03/03 11:46:32;;;;;;;;;;;9.60;99.90;;;;;;5068966;28;20773;-63
2024/03/03 11:49:06;;;;;;;;;;;9.60;99.90;;;;;;5062645;28;19932;-63
2024/03/03 11:51:38;;;;;;;;;;;9.80;99.90;;;;;;5066752;28;20498;-63
2024/03/03 11:54:12;;;;;;;;;;;10.00;99.90;;;;;;5070696;28;19925;-63
2024/03/03 11:56:46;;;;;;;;;;;10.20;99.90;;;;;;5047144;28;19960;-62
2024/03/03 11:59:18;;;;;;;;;;;10.20;99.90;;;;;;5064746;28;20809;-62
2024/03/03 12:01:50;;;;;;;;;;;10.50;99.90;;;;;;5061721;28;19924;-63
2024/03/03 12:04:21;;;;;;;;;;;10.60;99.90;;;;;;5055337;28;19928;-63
2024/03/03 12:06:53;;;;;;;;;;;10.80;99.90;;;;;;5058515;28;19925;-62
2024/03/03 12:09:21;;;;;;;;;;;10.90;99.90;;;;;;5059959;28;19930;-62
2024/03/03 12:11:53;;;;;;;;;;;10.90;99.90;;;;;;5065991;28;19931;-63
2024/03/03 12:14:25;;;;;;;;;;;11.00;99.90;;;;;;5061928;28;19928;-63
2024/03/03 12:16:57;;;;;;;;;;;11.10;99.90;;;;;;5059367;28;19924;-63
2024/03/03 12:19:32;;;;;;;;;;;11.10;99.90;;;;;;5061307;28;19924;-62
2024/03/03 12:22:04;;;;;;;;;;;11.20;99.90;;;;;;5062958;28;19925;-62
2024/03/03 12:24:36;;;;;;;;;;;11.20;99.90;;;;;;5062035;28;20019;-62
2024/03/03 12:27:08;;;;;;;;;;;11.30;99.90;;;;;;5057817;28;19929;-62
2024/03/03 12:29:55;;;;;;;;;;;11.40;99.90;;;;;;5058800;28;19964;-62
2024/03/03 12:32:27;;;;;;;;;;;11.40;99.90;;;;;;5060223;28;20303;-63
2024/03/03 12:34:59;;;;;;;;;;;11.50;99.90;;;;;;5066339;28;19924;-62
2024/03/03 12:37:26;;;;;;;;;;;11.60;99.90;;;;;;5059886;28;19928;-62
2024/03/03 12:39:53;;;;;;;;;;;11.60;99.90;;;;;;5056843;28;19925;-62
2024/03/03 12:42:25;;;;;;;;;;;11.70;99.90;;;;;;5062599;28;19924;-63
2024/03/03 12:44:58;;;;;;;;;;;11.70;99.90;;;;;;5063872;28;19935;-62
2024/03/03 12:47:30;;;;;;;;;;;11.80;99.90;;;;;;5060877;28;19947;-62
2024/03/03 12:49:57;;;;;;;;;;;12.00;99.90;;;;;;5058166;28;19924;-63
2024/03/03 12:52:28;;;;;;;;;;;12.00;99.90;;;;;;5062289;28;19925;-62
2024/03/03 12:55:00;;;;;;;;;;;12.20;99.90;;;;;;5057271;28;19924;-63
2024/03/03 12:57:32;;;;;;;;;;;12.50;99.90;;;;;;5052315;28;20043;-63
2024/03/03 13:00:05;;;;;;;;;;;12.70;99.90;;;;;;5056345;28;20584;-63
2024/03/03 13:02:37;;;;;;;;;;;12.90;99.90;;;;;;5058681;28;20030;-62
2024/03/03 13:05:12;;;;;;;;;;;13.10;99.90;;;;;;5058734;28;19933;-63
2024/03/03 13:07:45;;;;;;;;;;;13.20;99.90;;;;;;5061694;28;20411;-62
2024/03/03 13:10:23;;;;;;;;;;;13.40;99.90;;;;;;5060109;28;19929;-62
2024/03/03 13:12:55;;;;;;;;;;;13.50;99.90;;;;;;5061004;28;20023;-63
2024/03/03 13:15:23;;;;;;;;;;;13.60;99.90;;;;;;5061170;28;19935;-62
2024/03/03 13:18:28;;;;;;;;;;;13.70;99.90;;;;;;5063859;28;20421;-63
2024/03/03 13:21:09;;;;;;;;;;;13.80;99.90;;;;;;5039968;28;19932;-63
2024/03/03 13:23:36;;;;;;;;;;;13.90;99.90;;;;;;5058138;28;19924;-63
2024/03/03 13:26:09;;;;;;;;;;;14.00;99.90;;;;;;5051820;28;20025;-63
2024/03/03 13:28:41;;;;;;;;;;;14.10;99.90;;;;;;5059025;28;19929;-63
2024/03/03 13:31:13;;;;;;;;;;;14.20;99.90;;;;;;5061496;28;19933;-63
2024/03/03 13:33:45;;;;;;;;;;;14.30;99.90;;;;;;5063016;28;19925;-63
2024/03/03 13:36:18;;;;;;;;;;;14.50;99.90;;;;;;5065566;28;20214;-63
2024/03/03 13:38:50;;;;;;;;;;;14.60;99.90;;;;;;5062628;28;19934;-62
2024/03/03 13:41:21;;;;;;;;;;;14.70;99.90;;;;;;5064519;28;19929;-64
2024/03/03 13:43:53;;;;;;;;;;;14.80;99.90;;;;;;5069213;28;19938;-62
2024/03/03 13:46:25;;;;;;;;;;;14.90;99.90;;;;;;5064617;28;20011;-62
2024/03/03 13:48:57;;;;;;;;;;;15.10;99.90;;;;;;5063180;28;20006;-63
2024/03/03 13:51:29;;;;;;;;;;;15.20;99.90;;;;;;5052076;28;19941;-62
2024/03/03 13:53:55;;;;;;;;;;;15.30;99.90;;;;;;5058993;28;19924;-63
2024/03/03 13:56:22;;;;;;;;;;;15.40;99.90;;;;;;5061358;28;19924;-63
2024/03/03 13:58:54;;;;;;;;;;;15.40;99.90;;;;;;5061563;28;19968;-62
2024/03/03 14:01:26;;;;;;;;;;;15.60;99.90;;;;;;5064136;28;19968;-62
2024/03/03 14:03:53;;;;;;;;;;;15.60;99.90;;;;;;5067040;28;20011;-63
2024/03/03 14:06:25;;;;;;;;;;;15.70;99.90;;;;;;5061994;28;19967;-63
2024/03/03 14:08:57;;;;;;;;;;;15.80;99.90;;;;;;5060462;28;20720;-63
2024/03/03 14:11:29;;;;;;;;;;;15.90;99.90;;;;;;5066575;28;19925;-63
2024/03/03 14:14:00;;;;;;;;;;;15.90;99.90;;;;;;5062049;28;19925;-63
2024/03/03 14:16:32;;;;;;;;;;;15.90;99.90;;;;;;5065238;28;19939;-62
2024/03/03 14:19:04;;;;;;;;;;;16.00;99.90;;;;;;5064622;28;20397;-63
2024/03/03 14:21:36;;;;;;;;;;;16.00;99.90;;;;;;5062111;28;19925;-63
2024/03/03 14:24:07;;;;;;;;;;;16.10;99.90;;;;;;5065741;28;19936;-63
2024/03/03 14:26:39;;;;;;;;;;;16.10;99.90;;;;;;5061455;28;19936;-63
2024/03/03 14:29:11;;;;;;;;;;;16.20;99.90;;;;;;5060403;28;19986;-63
2024/03/03 14:31:43;;;;;;;;;;;16.20;99.90;;;;;;5063843;28;19928;-63
2024/03/03 14:34:15;;;;;;;;;;;16.20;99.90;;;;;;5062157;28;19932;-63
2024/03/03 14:36:42;;;;;;;;;;;16.20;99.90;;;;;;5063160;28;19929;-67
2024/03/03 14:39:11;;;;;;;;;;;16.30;99.90;;;;;;5062865;28;20412;-63
2024/03/03 14:41:43;;;;;;;;;;;16.30;99.90;;;;;;5063186;28;19929;-63
2024/03/03 14:44:15;;;;;;;;;;;16.40;99.90;;;;;;5058692;28;20769;-63
2024/03/03 14:46:47;;;;;;;;;;;16.50;99.90;;;;;;5058006;28;20039;-63
2024/03/03 14:49:19;;;;;;;;;;;16.50;99.90;;;;;;5065578;28;20006;-63
2024/03/03 14:51:51;;;;;;;;;;;16.50;99.90;;;;;;5063695;28;20399;-62